Time;durP1;ratioP1;P1;durP2;ratioP2;P2;SDS_P1;SDS_P2;PMS_P1;PMS_P2;Temp;Humidity;BMP_temperature;BMP_pressure;BME280_temperature;BME280_humidity;BME280_pressure;Samples;Min_cycle;Max_cycle;Signal;HPM_P1;HPM_P2
2024/02/03 00:02:23;;;;;;;5.90;1.70;;;;;;;4.03;80.64;101846.34;4989062;28;20077;-62
2024/02/03 00:04:49;;;;;;;4.43;1.63;;;;;;;4.03;80.57;101837.78;4989015;28;20026;-62
2024/02/03 00:07:15;;;;;;;7.55;1.70;;;;;;;4.01;80.51;101830.13;4978598;28;20065;-63
2024/02/03 00:09:40;;;;;;;6.97;1.95;;;;;;;4.04;80.79;101835.13;5002587;28;20443;-62
2024/02/03 00:12:07;;;;;;;7.85;2.15;;;;;;;4.05;80.49;101838.56;4989776;28;20031;-62
2024/02/03 00:14:33;;;;;;;7.57;2.58;;;;;;;3.97;80.63;101837.16;4988023;28;20035;-63
2024/02/03 00:16:58;;;;;;;5.97;1.58;;;;;;;3.95;80.45;101835.53;4994794;28;20167;-62
2024/02/03 00:19:24;;;;;;;2.72;0.98;;;;;;;3.97;80.17;101837.16;4993307;28;20037;-63
2024/02/03 00:21:49;;;;;;;4.88;1.13;;;;;;;4.04;79.84;101834.31;4996535;28;20037;-63
2024/02/03 00:24:14;;;;;;;4.32;0.90;;;;;;;4.09;78.87;101822.88;4991188;28;20049;-63
2024/02/03 00:26:40;;;;;;;2.97;1.33;;;;;;;4.17;79.03;101830.25;4983731;28;20208;-62
2024/02/03 00:29:05;;;;;;;3.63;1.45;;;;;;;4.20;78.45;101833.53;4986332;28;20192;-62
2024/02/03 00:31:31;;;;;;;3.85;0.90;;;;;;;4.17;79.15;101819.94;4991045;28;20429;-62
2024/02/03 00:33:56;;;;;;;2.35;1.08;;;;;;;4.18;78.84;101832.78;4991146;28;20038;-62
2024/02/03 00:36:25;;;;;;;3.60;1.40;;;;;;;4.20;79.05;101830.97;4983728;28;20038;-62
2024/02/03 00:38:51;;;;;;;3.30;1.02;;;;;;;4.15;79.20;101827.75;4992412;28;20068;-62
2024/02/03 00:41:17;;;;;;;2.58;1.10;;;;;;;4.11;79.29;101825.38;4994453;28;20038;-63
2024/02/03 00:43:43;;;;;;;1.98;0.82;;;;;;;4.00;79.73;101836.19;4988471;28;20201;-62
2024/02/03 00:46:10;;;;;;;3.53;1.30;;;;;;;3.97;80.04;101826.00;4989475;28;20418;-62
2024/02/03 00:48:36;;;;;;;2.65;0.70;;;;;;;3.94;80.03;101831.28;4990699;28;20038;-62
2024/02/03 00:51:01;;;;;;;7.72;1.48;;;;;;;3.94;80.50;101828.72;4990794;28;20034;-62
2024/02/03 00:53:27;;;;;;;4.90;1.27;;;;;;;3.89;80.15;101825.50;4990874;28;20030;-62
2024/02/03 00:55:52;;;;;;;9.68;1.83;;;;;;;3.91;79.86;101828.84;4987270;28;20034;-62
2024/02/03 00:58:18;;;;;;;3.33;1.10;;;;;;;3.93;79.63;101824.47;4988361;28;20394;-63
2024/02/03 01:00:43;;;;;;;2.85;0.80;;;;;;;3.99;79.62;101827.59;4994143;28;20104;-63
2024/02/03 01:03:08;;;;;;;4.13;0.82;;;;;;;3.97;79.86;101824.25;4992205;28;20463;-63
2024/02/03 01:05:34;;;;;;;3.40;1.00;;;;;;;4.05;79.74;101818.75;4997030;28;20042;-62
2024/02/03 01:07:59;;;;;;;5.93;1.00;;;;;;;4.02;80.12;101813.75;4993972;28;20030;-62
2024/02/03 01:10:26;;;;;;;1.95;0.52;;;;;;;4.00;79.53;101818.13;4992254;28;20085;-62
2024/02/03 01:12:52;;;;;;;2.75;0.68;;;;;;;3.88;79.49;101816.09;4996097;28;20026;-62
2024/02/03 01:15:17;;;;;;;3.60;1.08;;;;;;;3.62;80.22;101819.84;4992711;28;20037;-62
2024/02/03 01:17:42;;;;;;;8.82;2.03;;;;;;;3.30;80.99;101816.94;4997754;28;20029;-63
2024/02/03 01:20:09;;;;;;;6.45;1.60;;;;;;;3.03;81.58;101822.38;4986214;28;20049;-62
2024/02/03 01:22:34;;;;;;;3.72;1.52;;;;;;;2.89;82.98;101813.47;4988326;28;20060;-62
2024/02/03 01:24:59;;;;;;;11.63;2.60;;;;;;;2.81;83.03;101823.28;4987024;28;20038;-62
2024/02/03 01:27:25;;;;;;;9.63;2.67;;;;;;;2.64;83.20;101817.94;4992085;28;20037;-62
2024/02/03 01:29:50;;;;;;;11.27;3.08;;;;;;;2.48;83.44;101817.72;4990976;28;20067;-62
2024/02/03 01:32:16;;;;;;;10.27;3.25;;;;;;;2.38;84.41;101823.28;4990256;28;20034;-62
2024/02/03 01:34:42;;;;;;;8.80;2.58;;;;;;;2.28;84.52;101826.22;4975367;28;20029;-62
2024/02/03 01:37:07;;;;;;;7.45;3.00;;;;;;;2.16;84.63;101818.97;4992378;28;20050;-62
2024/02/03 01:39:32;;;;;;;9.40;3.30;;;;;;;2.02;87.05;101826.34;4993173;28;20026;-62
2024/02/03 01:41:58;;;;;;;12.07;3.75;;;;;;;1.92;86.97;101827.56;4993319;28;20095;-62
2024/02/03 01:44:29;;;;;;;10.00;3.72;;;;;;;1.87;87.70;101824.34;4989809;28;20030;-62
2024/02/03 01:46:55;;;;;;;12.38;4.03;;;;;;;1.85;87.50;101819.28;4993809;28;20034;-62
2024/02/03 01:49:20;;;;;;;12.50;4.20;;;;;;;1.81;87.72;101811.72;4986145;28;20449;-62
2024/02/03 01:51:47;;;;;;;9.93;4.18;;;;;;;1.72;89.49;101815.47;4994727;28;20524;-62
2024/02/03 01:54:13;;;;;;;12.15;4.45;;;;;;;1.72;89.35;101807.75;4989646;28;20030;-62
2024/02/03 01:56:42;;;;;;;8.90;3.40;;;;;;;1.65;90.73;101807.13;4989527;28;20369;-62
2024/02/03 01:59:07;;;;;;;6.38;3.45;;;;;;;1.72;89.93;101807.75;4982713;28;20030;-62
2024/02/03 02:01:33;;;;;;;7.72;3.33;;;;;;;1.83;88.94;101812.50;4978048;28;20390;-62
2024/02/03 02:03:59;;;;;;;5.82;2.80;;;;;;;2.01;89.53;101804.09;4993075;28;20053;-62
2024/02/03 02:06:24;;;;;;;6.50;2.30;;;;;;;2.26;89.38;101796.31;4992761;28;20436;-61
2024/02/03 02:08:50;;;;;;;3.15;1.20;;;;;;;2.74;87.38;101808.97;4995520;28;20467;-61
2024/02/03 02:11:16;;;;;;;3.47;1.33;;;;;;;3.15;85.54;101812.41;5000195;28;20037;-62
2024/02/03 02:13:41;;;;;;;4.50;1.02;;;;;;;3.32;84.64;101799.63;4987806;28;20418;-62
2024/02/03 02:16:07;;;;;;;3.50;1.33;;;;;;;3.38;84.01;101795.13;4994648;28;20033;-61
2024/02/03 02:18:32;;;;;;;4.75;1.40;;;;;;;3.42;83.96;101800.09;4989597;28;20030;-62
2024/02/03 02:20:58;;;;;;;3.35;1.23;;;;;;;3.45;84.10;101796.53;4968128;28;20485;-62
2024/02/03 02:23:23;;;;;;;4.18;0.82;;;;;;;3.39;84.23;101789.91;4992558;28;20030;-62
2024/02/03 02:25:49;;;;;;;3.78;1.27;;;;;;;3.39;84.30;101792.47;4994446;28;20033;-62
2024/02/03 02:28:14;;;;;;;3.72;1.35;;;;;;;3.41;84.04;101782.94;4991145;28;20031;-62
2024/02/03 02:30:40;;;;;;;6.90;1.63;;;;;;;3.38;83.68;101779.66;4994738;28;20374;-62
2024/02/03 02:33:08;;;;;;;3.97;0.88;;;;;;;3.36;83.81;101777.16;4994967;28;20096;-62
2024/02/03 02:35:34;;;;;;;3.83;1.13;;;;;;;3.38;83.78;101775.34;4986816;28;20581;-62
2024/02/03 02:37:59;;;;;;;4.57;1.30;;;;;;;3.41;84.39;101772.66;4988125;28;20141;-62
2024/02/03 02:40:25;;;;;;;4.22;1.45;;;;;;;3.39;84.17;101760.72;4978274;28;20142;-64
2024/02/03 02:42:50;;;;;;;6.55;1.50;;;;;;;3.33;84.82;101769.56;4995765;28;20521;-63
2024/02/03 02:45:16;;;;;;;4.95;1.00;;;;;;;3.33;85.63;101772.13;4991056;28;20034;-64
2024/02/03 02:47:41;;;;;;;3.30;0.88;;;;;;;3.30;84.68;101764.56;4991795;28;20048;-63
2024/02/03 02:50:07;;;;;;;4.57;1.75;;;;;;;3.28;84.96;101763.81;4995513;28;20026;-63
2024/02/03 02:52:32;;;;;;;4.93;1.20;;;;;;;3.29;85.22;101757.75;4991680;28;20109;-63
2024/02/03 02:54:58;;;;;;;3.88;1.30;;;;;;;3.29;84.55;101763.72;4990251;28;20470;-63
2024/02/03 02:57:23;;;;;;;11.52;1.55;;;;;;;3.27;85.08;101759.56;4989986;28;20035;-63
2024/02/03 02:59:49;;;;;;;4.32;1.50;;;;;;;3.30;85.23;101769.72;4992509;28;20710;-63
2024/02/03 03:02:14;;;;;;;2.40;0.82;;;;;;;3.32;84.61;101766.16;4994680;28;20478;-64
2024/02/03 03:04:40;;;;;;;5.57;0.85;;;;;;;3.36;84.51;101761.69;4994081;28;20049;-63
2024/02/03 03:07:05;;;;;;;2.50;0.80;;;;;;;3.38;84.41;101757.31;4991438;28;20072;-63
2024/02/03 03:09:31;;;;;;;6.18;1.13;;;;;;;3.19;84.24;101767.59;4987404;28;20069;-63
2024/02/03 03:11:56;;;;;;;5.43;1.65;;;;;;;2.90;85.40;101773.97;4997655;28;20039;-63
2024/02/03 03:14:22;;;;;;;3.50;1.60;;;;;;;2.68;85.79;101770.63;4984360;28;20093;-63
2024/02/03 03:16:49;;;;;;;4.88;1.48;;;;;;;2.54;86.10;101770.31;4992982;28;20561;-63
2024/02/03 03:19:15;;;;;;;12.38;1.95;;;;;;;2.41;86.51;101762.25;4992020;28;20076;-63
2024/02/03 03:21:41;;;;;;;5.60;1.88;;;;;;;2.33;86.62;101765.16;4989538;28;20058;-63
2024/02/03 03:24:07;;;;;;;4.78;1.52;;;;;;;2.26;86.84;101768.84;4990839;28;20117;-63
2024/02/03 03:26:32;;;;;;;8.90;2.55;;;;;;;2.19;87.24;101772.56;4997328;28;20030;-63
2024/02/03 03:28:57;;;;;;;8.80;2.38;;;;;;;2.14;87.21;101761.63;4996178;28;20457;-62
2024/02/03 03:31:23;;;;;;;4.07;1.00;;;;;;;2.30;89.25;101761.88;4995676;28;20043;-63
2024/02/03 03:33:48;;;;;;;11.40;1.27;;;;;;;2.83;88.06;101767.44;4994769;28;20027;-63
2024/02/03 03:36:14;;;;;;;2.75;1.08;;;;;;;3.06;86.59;101760.47;4951793;28;1163703;-63
2024/02/03 03:38:42;;;;;;;3.42;1.02;;;;;;;3.14;85.69;101754.09;4980228;28;20060;-63
2024/02/03 03:41:11;;;;;;;3.60;0.82;;;;;;;3.21;85.04;101755.50;4997747;28;20447;-63
2024/02/03 03:43:37;;;;;;;3.10;1.08;;;;;;;3.25;84.88;101762.19;4998159;28;20076;-63
2024/02/03 03:46:04;;;;;;;3.40;0.95;;;;;;;3.33;84.91;101764.41;4997820;28;20033;-63
2024/02/03 03:48:29;;;;;;;5.07;0.93;;;;;;;3.40;84.66;101755.50;4999346;28;20088;-63
2024/02/03 03:50:55;;;;;;;2.10;0.68;;;;;;;3.38;84.40;101751.34;5005579;28;20062;-62
2024/02/03 03:53:21;;;;;;;3.47;1.08;;;;;;;3.33;84.88;101754.94;4999672;28;20505;-63
2024/02/03 03:55:46;;;;;;;6.85;0.95;;;;;;;3.27;84.96;101757.81;5005318;28;20045;-63
2024/02/03 03:58:12;;;;;;;3.30;1.02;;;;;;;3.27;84.47;101772.44;5002969;28;20448;-63
2024/02/03 04:00:37;;;;;;;3.00;1.00;;;;;;;3.22;85.73;101762.31;5003027;28;20502;-63
2024/02/03 04:03:03;;;;;;;5.63;0.88;;;;;;;3.19;84.89;101764.19;4992474;28;20119;-63
2024/02/03 04:05:29;;;;;;;5.10;1.73;;;;;;;2.82;85.42;101772.63;4996710;28;20359;-63
2024/02/03 04:07:54;;;;;;;7.88;2.67;;;;;;;2.48;86.23;101757.69;4990401;28;20042;-63
2024/02/03 04:10:20;;;;;;;5.03;2.05;;;;;;;2.24;88.20;101770.66;4975438;28;20066;-63
2024/02/03 04:12:45;;;;;;;8.85;2.67;;;;;;;2.03;88.92;101766.31;4991962;28;20026;-63
2024/02/03 04:15:11;;;;;;;5.90;2.10;;;;;;;1.99;89.15;101760.47;4996067;28;21237;-63
2024/02/03 04:17:36;;;;;;;5.57;3.03;;;;;;;1.99;88.88;101767.34;4979055;28;20446;-63
2024/02/03 04:20:03;;;;;;;4.90;2.33;;;;;;;2.09;89.53;101763.53;4998218;28;20121;-63
2024/02/03 04:22:28;;;;;;;8.05;2.53;;;;;;;2.11;88.62;101766.03;5002797;28;20030;-63
2024/02/03 04:24:53;;;;;;;3.83;1.02;;;;;;;2.38;90.35;101767.50;4994704;28;20511;-64
2024/02/03 04:27:19;;;;;;;4.03;1.58;;;;;;;2.66;87.12;101767.25;4993800;28;20040;-63
2024/02/03 04:29:45;;;;;;;3.63;1.40;;;;;;;2.75;87.72;101761.75;4987605;28;20034;-63
2024/02/03 04:32:12;;;;;;;5.32;2.08;;;;;;;2.68;87.35;101762.91;4999847;28;20095;-63
2024/02/03 04:34:37;;;;;;;10.00;2.38;;;;;;;2.50;87.17;101766.19;4997075;28;20466;-63
2024/02/03 04:37:03;;;;;;;3.88;1.58;;;;;;;2.46;88.50;101754.34;4975197;28;20104;-63
2024/02/03 04:39:29;;;;;;;4.43;1.35;;;;;;;2.59;88.78;101765.84;4976881;28;20402;-63
2024/02/03 04:41:54;;;;;;;3.60;1.73;;;;;;;2.85;87.61;101767.31;4992988;28;20482;-63
2024/02/03 04:44:20;;;;;;;3.83;1.08;;;;;;;2.95;87.32;101769.47;4998145;28;20106;-62
2024/02/03 04:46:45;;;;;;;4.07;1.40;;;;;;;2.86;86.78;101766.44;4997197;28;20030;-63
2024/02/03 04:49:11;;;;;;;4.57;2.13;;;;;;;2.67;87.59;101763.78;4992428;28;20034;-63
2024/02/03 04:51:36;;;;;;;8.50;2.42;;;;;;;2.52;88.55;101759.25;4997568;28;20023;-63
2024/02/03 04:54:01;;;;;;;8.00;2.67;;;;;;;2.60;87.83;101762.38;4997214;28;20446;-63
2024/02/03 04:56:27;;;;;;;3.35;1.70;;;;;;;2.70;88.70;101752.53;4997819;28;20491;-62
2024/02/03 04:58:52;;;;;;;2.85;1.00;;;;;;;2.88;88.25;101756.91;4992496;28;20034;-62
2024/02/03 05:01:18;;;;;;;3.53;1.02;;;;;;;3.03;87.35;101742.56;4994385;28;20081;-63
2024/02/03 05:03:43;;;;;;;4.55;0.85;;;;;;;3.09;86.71;101745.72;4993316;28;20074;-63
2024/02/03 05:06:10;;;;;;;4.35;0.82;;;;;;;3.14;86.52;101738.63;4996610;28;20442;-63
2024/02/03 05:08:36;;;;;;;4.40;1.77;;;;;;;3.10;86.35;101734.50;4994420;28;20045;-63
2024/02/03 05:11:01;;;;;;;2.08;0.50;;;;;;;3.10;86.63;101731.09;4981258;28;20045;-63
2024/02/03 05:13:27;;;;;;;2.53;0.80;;;;;;;3.20;85.92;101740.09;4993786;28;20034;-63
2024/02/03 05:15:52;;;;;;;7.78;0.90;;;;;;;3.17;85.61;101743.66;4990855;28;20391;-63
2024/02/03 05:18:19;;;;;;;3.45;1.30;;;;;;;3.13;85.48;101744.69;4990894;28;20174;-63
2024/02/03 05:20:45;;;;;;;4.80;2.05;;;;;;;3.05;85.48;101743.34;5001950;28;20042;-63
2024/02/03 05:23:10;;;;;;;5.63;1.83;;;;;;;3.00;85.26;101746.94;4998183;28;20033;-63
2024/02/03 05:25:36;;;;;;;9.05;1.50;;;;;;;3.04;86.06;101736.50;4993415;28;20073;-63
2024/02/03 05:28:02;;;;;;;3.85;0.85;;;;;;;3.08;86.56;101738.06;4987980;28;20513;-63
2024/02/03 05:30:27;;;;;;;2.65;0.80;;;;;;;3.18;86.32;101731.63;4995411;28;20072;-63
2024/02/03 05:32:53;;;;;;;2.08;1.02;;;;;;;3.22;86.01;101734.00;5000671;28;20018;-62
2024/02/03 05:35:18;;;;;;;3.05;1.00;;;;;;;3.23;86.01;101732.25;4994476;28;20042;-63
2024/02/03 05:37:44;;;;;;;5.05;1.02;;;;;;;3.22;86.18;101738.31;4966156;28;20042;-62
2024/02/03 05:40:10;;;;;;;2.38;1.00;;;;;;;3.24;86.40;101739.06;4993103;28;20482;-63
2024/02/03 05:42:35;;;;;;;3.55;0.88;;;;;;;3.25;86.50;101743.31;5002274;28;20034;-63
2024/02/03 05:45:01;;;;;;;4.13;1.40;;;;;;;3.22;85.79;101731.41;4995982;28;20038;-63
2024/02/03 05:47:26;;;;;;;5.32;1.98;;;;;;;3.05;86.50;101730.47;5002939;28;20038;-63
2024/02/03 05:49:52;;;;;;;8.27;2.05;;;;;;;2.88;86.38;101737.16;4992808;28;20026;-63
2024/02/03 05:52:18;;;;;;;5.70;2.38;;;;;;;2.76;87.06;101740.25;5003247;28;20080;-63
2024/02/03 05:54:43;;;;;;;7.85;2.75;;;;;;;2.65;87.27;101739.84;4998229;28;20482;-63
2024/02/03 05:57:12;;;;;;;8.30;3.45;;;;;;;2.43;88.77;101734.75;4990495;28;20109;-63
2024/02/03 05:59:37;;;;;;;6.47;3.53;;;;;;;2.31;89.19;101733.50;4990563;28;20027;-63
2024/02/03 06:02:03;;;;;;;6.05;3.20;;;;;;;2.19;89.94;101739.13;4992572;28;20037;-63
2024/02/03 06:04:28;;;;;;;11.30;3.85;;;;;;;2.10;90.48;101739.50;4992979;28;20521;-63
2024/02/03 06:06:54;;;;;;;6.88;2.67;;;;;;;2.32;90.94;101742.06;4990760;28;20120;-63
2024/02/03 06:09:19;;;;;;;8.77;3.88;;;;;;;2.58;90.27;101735.84;4990096;28;20066;-63
2024/02/03 06:11:45;;;;;;;5.38;1.75;;;;;;;2.81;89.24;101745.22;4997256;28;20041;-63
2024/02/03 06:14:10;;;;;;;6.30;1.67;;;;;;;2.90;87.56;101750.78;4994733;28;20411;-63
2024/02/03 06:16:35;;;;;;;5.18;1.50;;;;;;;3.02;87.76;101739.16;4995572;28;20060;-63
2024/02/03 06:19:01;;;;;;;7.20;2.08;;;;;;;3.04;87.51;101749.38;4997304;28;20034;-63
2024/02/03 06:21:27;;;;;;;2.60;0.80;;;;;;;3.12;87.56;101749.91;4991438;28;20096;-63
2024/02/03 06:23:52;;;;;;;2.65;0.80;;;;;;;3.25;86.64;101745.91;4989401;28;20034;-62
2024/02/03 06:26:18;;;;;;;2.88;0.90;;;;;;;3.23;86.65;101742.56;5004207;28;20038;-63
2024/02/03 06:28:43;;;;;;;2.72;0.98;;;;;;;3.18;86.78;101735.03;4996009;28;20027;-62
2024/02/03 06:31:09;;;;;;;2.25;0.60;;;;;;;3.22;86.54;101746.03;4997320;28;20061;-63
2024/02/03 06:33:34;;;;;;;4.40;1.48;;;;;;;3.21;86.30;101749.50;4994386;28;20038;-63
2024/02/03 06:36:00;;;;;;;2.58;0.50;;;;;;;3.21;86.55;101749.50;4994265;28;20045;-63
2024/02/03 06:38:27;;;;;;;2.65;0.80;;;;;;;3.23;86.60;101755.44;4983365;28;20434;-63
2024/02/03 06:40:53;;;;;;;2.35;0.80;;;;;;;3.25;86.83;101756.19;4993467;28;20030;-63
2024/02/03 06:43:18;;;;;;;4.82;0.95;;;;;;;3.25;86.48;101757.03;4995501;28;20030;-63
2024/02/03 06:45:44;;;;;;;3.10;0.75;;;;;;;3.26;86.30;101750.16;4987247;28;20033;-63
2024/02/03 06:48:09;;;;;;;2.67;1.00;;;;;;;3.24;86.72;101751.97;4996099;28;20050;-63
2024/02/03 06:50:34;;;;;;;2.70;0.75;;;;;;;3.26;86.16;101757.88;4992428;28;20026;-63
2024/02/03 06:53:00;;;;;;;5.40;0.88;;;;;;;3.29;86.17;101763.72;4986179;28;20038;-63
2024/02/03 06:55:25;;;;;;;5.45;1.25;;;;;;;3.30;86.50;101762.84;4996773;28;20469;-63
2024/02/03 06:57:51;;;;;;;6.53;1.17;;;;;;;3.34;86.14;101771.22;4990739;28;20031;-63
2024/02/03 07:00:17;;;;;;;6.05;1.63;;;;;;;3.34;85.93;101768.66;4993751;28;20474;-63
2024/02/03 07:02:42;;;;;;;6.85;1.25;;;;;;;3.38;86.07;101771.94;4996800;28;20057;-63
2024/02/03 07:05:10;;;;;;;2.95;1.10;;;;;;;3.44;85.89;101771.69;4989469;28;20027;-63
2024/02/03 07:07:36;;;;;;;2.33;0.65;;;;;;;3.46;85.77;101773.28;4987050;28;20093;-63
2024/02/03 07:10:02;;;;;;;1.98;0.70;;;;;;;3.48;85.11;101766.31;4990469;28;20030;-63
2024/02/03 07:12:28;;;;;;;3.00;0.98;;;;;;;3.46;85.53;101770.72;4996704;28;20053;-62
2024/02/03 07:14:53;;;;;;;5.68;1.33;;;;;;;3.43;85.78;101768.25;4987512;28;20049;-63
2024/02/03 07:17:19;;;;;;;4.35;1.25;;;;;;;3.47;85.73;101772.38;4989710;28;20037;-62
2024/02/03 07:19:44;;;;;;;4.30;1.58;;;;;;;3.46;85.38;101775.03;4987735;28;20030;-63
2024/02/03 07:22:10;;;;;;;5.22;2.35;;;;;;;3.36;86.29;101787.47;4982275;28;20041;-63
2024/02/03 07:24:39;;;;;;;13.30;2.17;;;;;;;3.23;86.60;101773.47;4985106;28;20529;-63
2024/02/03 07:27:04;;;;;;;9.07;3.92;;;;;;;3.11;87.05;101776.56;4994097;28;20022;-63
2024/02/03 07:29:30;;;;;;;8.38;3.83;;;;;;;3.01;87.81;101778.66;4995361;28;21518;-63
2024/02/03 07:32:00;;;;;;;13.70;3.17;;;;;;;3.08;88.03;101774.94;5001232;28;20026;-63
2024/02/03 07:34:26;;;;;;;6.75;2.40;;;;;;;3.17;87.15;101769.41;4995676;28;20129;-63
2024/02/03 07:36:52;;;;;;;5.95;2.50;;;;;;;3.17;86.99;101782.28;4993097;28;20161;-63
2024/02/03 07:39:17;;;;;;;6.63;3.40;;;;;;;3.19;87.05;101777.06;4993247;28;20038;-64
2024/02/03 07:41:43;;;;;;;13.00;3.47;;;;;;;3.26;86.76;101781.06;4988449;28;20046;-63
2024/02/03 07:44:08;;;;;;;12.27;3.35;;;;;;;3.33;86.72;101785.00;4987190;28;20097;-63
2024/02/03 07:46:33;;;;;;;5.60;1.38;;;;;;;3.49;85.94;101780.03;4993328;28;20118;-63
2024/02/03 07:48:59;;;;;;;8.27;1.85;;;;;;;3.63;85.56;101778.53;4995194;28;20045;-63
2024/02/03 07:51:24;;;;;;;7.15;1.67;;;;;;;3.72;84.90;101776.47;5002562;28;20021;-63
2024/02/03 07:53:50;;;;;;;3.17;0.95;;;;;;;3.76;84.40;101772.84;4993963;28;20107;-63
2024/02/03 07:56:15;;;;;;;5.60;1.15;;;;;;;3.76;84.50;101765.94;4999527;28;20441;-63
2024/02/03 07:58:40;;;;;;;2.28;1.15;;;;;;;3.76;84.53;101768.53;4987788;28;20034;-63
2024/02/03 08:01:06;;;;;;;4.28;0.93;;;;;;;3.79;84.56;101767.53;4996818;28;20038;-63
2024/02/03 08:03:31;;;;;;;2.35;0.90;;;;;;;3.81;84.67;101773.44;4999225;28;20379;-63
2024/02/03 08:05:59;;;;;;;7.35;0.90;;;;;;;3.86;83.82;101768.91;4996873;28;20034;-63
2024/02/03 08:08:24;;;;;;;3.03;0.95;;;;;;;3.92;83.79;101778.94;4996805;28;20042;-63
2024/02/03 08:10:50;;;;;;;3.70;1.60;;;;;;;3.96;83.48;101776.16;4989141;28;20474;-63
2024/02/03 08:13:16;;;;;;;4.30;1.10;;;;;;;4.01;83.10;101778.53;4973723;28;20034;-63
2024/02/03 08:15:41;;;;;;;4.10;1.48;;;;;;;4.07;83.47;101774.84;4992176;28;20409;-62
2024/02/03 08:18:07;;;;;;;3.53;1.20;;;;;;;4.16;82.89;101775.25;4994694;28;20136;-63
2024/02/03 08:20:32;;;;;;;5.22;1.48;;;;;;;4.22;82.86;101777.56;5003944;28;20038;-63
2024/02/03 08:22:58;;;;;;;5.50;1.90;;;;;;;4.19;82.57;101763.97;4996126;28;20141;-63
2024/02/03 08:25:24;;;;;;;3.88;1.55;;;;;;;4.14;82.98;101761.59;4992923;28;20116;-63
2024/02/03 08:27:49;;;;;;;4.53;1.95;;;;;;;4.13;82.78;101759.09;4988153;28;20037;-63
2024/02/03 08:30:15;;;;;;;3.67;2.10;;;;;;;4.17;82.81;101764.03;4999976;28;20450;-63
2024/02/03 08:32:40;;;;;;;10.38;2.83;;;;;;;4.25;82.62;101764.47;4995626;28;20026;-63
2024/02/03 08:35:06;;;;;;;7.80;2.83;;;;;;;4.36;82.73;101768.31;4992461;28;20034;-62
2024/02/03 08:37:31;;;;;;;6.85;2.35;;;;;;;4.44;81.99;101756.72;4997051;28;20084;-62
2024/02/03 08:39:57;;;;;;;4.43;1.35;;;;;;;4.52;81.38;101766.66;4995130;28;20025;-63
2024/02/03 08:42:22;;;;;;;4.78;1.77;;;;;;;4.52;81.71;101759.75;4995135;28;20029;-63
2024/02/03 08:44:47;;;;;;;3.90;1.17;;;;;;;4.55;81.49;101763.94;4995575;28;20025;-63
2024/02/03 08:47:13;;;;;;;4.18;1.20;;;;;;;4.55;81.38;101763.94;4992496;28;20073;-62
2024/02/03 08:49:52;;;;;;;3.50;1.10;;;;;;;4.59;80.91;101770.63;4999968;28;20116;-63
2024/02/03 08:52:18;;;;;;;4.72;1.00;;;;;;;4.64;81.10;101760.91;4973313;28;20035;-63
2024/02/03 08:54:43;;;;;;;6.10;1.13;;;;;;;4.72;81.03;101765.72;4995101;28;20037;-63
2024/02/03 08:57:09;;;;;;;3.22;1.40;;;;;;;4.80;80.59;101771.31;4981115;28;20117;-63
2024/02/03 08:59:34;;;;;;;2.97;1.45;;;;;;;4.82;80.84;101766.91;4991655;28;20092;-63
2024/02/03 09:01:59;;;;;;;2.10;1.27;;;;;;;4.90;80.43;101770.78;4976822;28;20381;-63
2024/02/03 09:04:25;;;;;;;5.40;1.50;;;;;;;4.98;80.12;101767.81;4992011;28;20038;-63
2024/02/03 09:06:50;;;;;;;3.97;1.17;;;;;;;5.06;79.86;101770.84;4991443;28;20164;-63
2024/02/03 09:09:16;;;;;;;4.40;1.45;;;;;;;5.12;79.94;101764.53;4992611;28;20413;-63
2024/02/03 09:11:41;;;;;;;4.15;1.38;;;;;;;5.19;79.64;101771.06;4993278;28;20177;-63
2024/02/03 09:14:06;;;;;;;3.92;1.33;;;;;;;5.23;79.64;101775.97;4989440;28;20058;-63
2024/02/03 09:16:32;;;;;;;6.43;2.08;;;;;;;5.37;79.08;101775.28;4977470;28;20030;-63
2024/02/03 09:18:58;;;;;;;4.30;1.27;;;;;;;5.49;78.75;101771.22;4993199;28;20411;-63
2024/02/03 09:21:23;;;;;;;4.82;2.05;;;;;;;5.56;78.51;101776.00;4995844;28;20034;-64
2024/02/03 09:23:48;;;;;;;4.80;1.50;;;;;;;5.65;78.28;101770.34;4994285;28;20053;-63
2024/02/03 09:26:14;;;;;;;4.97;1.23;;;;;;;5.72;78.09;101768.25;4973456;28;20473;-63
2024/02/03 09:28:39;;;;;;;2.92;1.15;;;;;;;5.76;77.35;101780.09;4989524;28;20049;-64
2024/02/03 09:31:05;;;;;;;2.45;0.85;;;;;;;5.79;77.51;101779.09;4989414;28;20034;-63
2024/02/03 09:33:31;;;;;;;4.00;1.52;;;;;;;5.81;77.43;101779.84;4990472;28;20031;-63
2024/02/03 09:35:57;;;;;;;5.55;1.40;;;;;;;5.83;77.34;101778.03;4989789;28;20041;-64
2024/02/03 09:38:22;;;;;;;3.40;1.10;;;;;;;5.83;77.48;101784.03;4987562;28;20046;-64
2024/02/03 09:40:48;;;;;;;3.67;1.55;;;;;;;5.87;77.38;101779.53;4994119;28;20030;-63
2024/02/03 09:43:14;;;;;;;5.53;1.52;;;;;;;5.93;76.99;101779.22;4990134;28;20045;-63
2024/02/03 09:45:40;;;;;;;3.05;1.08;;;;;;;5.92;76.71;101780.16;4987381;28;20038;-63
2024/02/03 09:48:06;;;;;;;4.57;1.27;;;;;;;5.93;76.92;101774.06;4991574;28;20037;-64
2024/02/03 09:50:32;;;;;;;3.17;1.17;;;;;;;5.98;77.31;101777.25;4990572;28;20394;-64
2024/02/03 09:53:00;;;;;;;4.00;1.20;;;;;;;6.01;76.64;101766.72;4993037;28;20022;-63
2024/02/03 09:55:26;;;;;;;5.40;1.10;;;;;;;6.06;76.26;101767.31;4987473;28;20096;-64
2024/02/03 09:57:52;;;;;;;5.00;1.30;;;;;;;6.11;76.03;101773.06;4991792;28;20038;-64
2024/02/03 10:00:20;;;;;;;6.05;1.40;;;;;;;6.18;76.46;101769.19;4988911;28;20038;-63
2024/02/03 10:02:47;;;;;;;3.95;1.23;;;;;;;6.28;75.84;101765.19;4991891;28;20038;-64
2024/02/03 10:05:12;;;;;;;4.05;1.60;;;;;;;6.35;75.58;101770.03;4989674;28;20031;-64
2024/02/03 10:07:37;;;;;;;5.07;1.58;;;;;;;6.39;75.17;101761.19;4993440;28;20030;-64
2024/02/03 10:10:06;;;;;;;5.93;1.42;;;;;;;6.50;75.03;101764.00;4981214;28;20478;-63
2024/02/03 10:12:32;;;;;;;6.53;1.50;;;;;;;6.55;75.01;101759.41;4985356;28;20022;-64
2024/02/03 10:15:05;;;;;;;4.15;1.65;;;;;;;6.51;75.00;101760.50;4988595;28;20034;-63
2024/02/03 10:17:34;;;;;;;4.20;1.55;;;;;;;6.55;75.01;101761.97;4989428;28;20548;-63
2024/02/03 10:20:00;;;;;;;4.93;1.55;;;;;;;6.58;74.91;101761.81;4985200;28;20097;-63
2024/02/03 10:22:26;;;;;;;2.05;0.80;;;;;;;6.67;74.58;101761.25;4990628;28;20041;-63
2024/02/03 10:24:52;;;;;;;7.30;1.20;;;;;;;6.79;74.32;101750.19;4990059;28;20058;-63
2024/02/03 10:27:24;;;;;;;3.47;1.02;;;;;;;6.85;73.80;101738.66;4994070;28;20473;-63
2024/02/03 10:29:54;;;;;;;5.80;1.60;;;;;;;6.93;73.64;101742.47;4990537;28;20029;-63
2024/02/03 10:32:20;;;;;;;4.13;1.40;;;;;;;7.04;73.52;101739.25;4990813;28;20026;-63
2024/02/03 10:34:46;;;;;;;7.43;1.40;;;;;;;7.11;73.48;101743.13;4995550;28;20125;-63
2024/02/03 10:37:12;;;;;;;3.78;1.58;;;;;;;7.11;73.39;101735.34;4982470;28;20062;-63
2024/02/03 10:39:41;;;;;;;4.05;1.83;;;;;;;7.13;73.70;101735.25;4987786;28;20066;-63
2024/02/03 10:42:09;;;;;;;8.80;1.77;;;;;;;7.17;73.89;101724.59;4992827;28;20035;-63
2024/02/03 10:44:35;;;;;;;5.03;2.15;;;;;;;7.20;73.03;101728.78;4994250;28;20412;-63
2024/02/03 10:47:02;;;;;;;5.03;1.55;;;;;;;7.24;73.18;101722.50;4991689;28;20065;-63
2024/02/03 10:49:33;;;;;;;4.03;1.40;;;;;;;7.30;73.24;101710.00;4992934;28;20490;-63
2024/02/03 10:52:06;;;;;;;4.85;1.80;;;;;;;7.31;72.37;101706.47;4984080;28;20050;-63
2024/02/03 10:54:33;;;;;;;4.40;1.33;;;;;;;7.27;72.67;101705.00;4989306;28;20152;-63
2024/02/03 10:57:03;;;;;;;3.92;1.52;;;;;;;7.30;72.86;101703.97;4986658;28;20022;-63
2024/02/03 10:59:28;;;;;;;3.13;1.15;;;;;;;7.34;72.93;101695.09;4988510;28;20036;-63
2024/02/03 11:01:54;;;;;;;4.40;1.60;;;;;;;7.42;72.90;101687.66;5002784;28;20038;-63
2024/02/03 11:04:19;;;;;;;4.13;1.63;;;;;;;7.48;72.66;101683.88;5007239;28;20440;-63
2024/02/03 11:06:47;;;;;;;2.53;0.90;;;;;;;7.48;72.96;101679.50;4996974;28;20042;-63
2024/02/03 11:09:22;;;;;;;3.15;1.15;;;;;;;7.52;72.88;101686.19;4994830;28;20224;-63
2024/02/03 11:11:53;;;;;;;8.88;1.75;;;;;;;7.66;71.83;101686.13;5003193;28;20068;-63
2024/02/03 11:14:21;;;;;;;3.47;1.10;;;;;;;7.70;71.00;101685.94;4999190;28;20394;-63
2024/02/03 11:17:12;;;;;;;6.95;1.30;;;;;;;7.73;71.13;101681.41;4994143;28;20125;-63
2024/02/03 11:19:38;;;;;;;2.72;0.93;;;;;;;7.78;71.48;101676.75;4996190;28;20053;-64
2024/02/03 11:22:05;;;;;;;5.57;1.90;;;;;;;7.77;71.04;101671.66;4995225;28;20026;-63
2024/02/03 11:24:32;;;;;;;5.68;1.85;;;;;;;7.79;71.37;101669.81;5004816;28;20029;-64
2024/02/03 11:27:02;;;;;;;5.80;1.90;;;;;;;7.80;70.68;101659.31;4999652;28;20026;-63